sensor_id;sensor_type;location;lat;lon;timestamp;pressure;altitude;pressure_sealevel;temperature;humidity
24610;BME280;12758;47.890;11.694;2023-08-20T00:00:45;94296.25;;;25.21;100.00
24610;BME280;12758;47.890;11.694;2023-08-20T00:03:12;94292.69;;;25.21;100.00
24610;BME280;12758;47.890;11.694;2023-08-20T00:05:39;94294.63;;;25.24;100.00
24610;BME280;12758;47.890;11.694;2023-08-20T00:08:06;94293.84;;;25.20;100.00
24610;BME280;12758;47.890;11.694;2023-08-20T00:10:33;94290.72;;;25.18;100.00
24610;BME280;12758;47.890;11.694;2023-08-20T00:12:59;94295.53;;;25.14;100.00
24610;BME280;12758;47.890;11.694;2023-08-20T00:15:25;94293.16;;;25.12;100.00
24610;BME280;12758;47.890;11.694;2023-08-20T00:17:53;94293.94;;;25.13;100.00
24610;BME280;12758;47.890;11.694;2023-08-20T00:20:19;94291.59;;;25.07;100.00
24610;BME280;12758;47.890;11.694;2023-08-20T00:22:45;94293.16;;;25.08;100.00
24610;BME280;12758;47.890;11.694;2023-08-20T00:25:13;94287.59;;;25.08;100.00
24610;BME280;12758;47.890;11.694;2023-08-20T00:27:40;94290.81;;;25.03;100.00
24610;BME280;12758;47.890;11.694;2023-08-20T00:30:07;94287.59;;;25.08;100.00
24610;BME280;12758;47.890;11.694;2023-08-20T00:32:34;94294.38;;;25.07;100.00
24610;BME280;12758;47.890;11.694;2023-08-20T00:35:00;94300.31;;;25.06;100.00
24610;BME280;12758;47.890;11.694;2023-08-20T00:37:28;94295.59;;;24.99;100.00
24610;BME280;12758;47.890;11.694;2023-08-20T00:39:54;94292.88;;;24.96;100.00
24610;BME280;12758;47.890;11.694;2023-08-20T00:42:20;94290.13;;;24.92;100.00
24610;BME280;12758;47.890;11.694;2023-08-20T00:44:47;94298.06;;;24.90;100.00
24610;BME280;12758;47.890;11.694;2023-08-20T00:47:13;94301.25;;;24.89;100.00
24610;BME280;12758;47.890;11.694;2023-08-20T00:49:39;94294.06;;;24.95;100.00
24610;BME280;12758;47.890;11.694;2023-08-20T00:52:06;94299.59;;;24.98;100.00
24610;BME280;12758;47.890;11.694;2023-08-20T00:54:34;94293.31;;;24.87;100.00
24610;BME280;12758;47.890;11.694;2023-08-20T00:57:00;94305.25;;;24.84;100.00
24610;BME280;12758;47.890;11.694;2023-08-20T00:59:27;94303.28;;;24.81;100.00
24610;BME280;12758;47.890;11.694;2023-08-20T01:01:55;94298.94;;;24.80;100.00
24610;BME280;12758;47.890;11.694;2023-08-20T01:04:21;94297.38;;;24.79;100.00
24610;BME280;12758;47.890;11.694;2023-08-20T01:06:57;94300.53;;;24.77;100.00
24610;BME280;12758;47.890;11.694;2023-08-20T01:09:29;94302.13;;;24.75;100.00
24610;BME280;12758;47.890;11.694;2023-08-20T01:11:59;94303.75;;;24.76;100.00
24610;BME280;12758;47.890;11.694;2023-08-20T01:14:26;94293.81;;;24.75;100.00
24610;BME280;12758;47.890;11.694;2023-08-20T01:16:52;94300.56;;;24.74;100.00
24610;BME280;12758;47.890;11.694;2023-08-20T01:19:20;94293.47;;;24.69;100.00
24610;BME280;12758;47.890;11.694;2023-08-20T01:21:51;94286.75;;;24.67;100.00
24610;BME280;12758;47.890;11.694;2023-08-20T01:24:26;94294.31;;;24.62;100.00
24610;BME280;12758;47.890;11.694;2023-08-20T01:27:03;94296.72;;;24.60;100.00
24610;BME280;12758;47.890;11.694;2023-08-20T01:29:34;94301.06;;;24.61;100.00
24610;BME280;12758;47.890;11.694;2023-08-20T01:32:01;94302.66;;;24.62;100.00
24610;BME280;12758;47.890;11.694;2023-08-20T01:34:28;94293.94;;;24.60;100.00
24610;BME280;12758;47.890;11.694;2023-08-20T01:36:54;94300.69;;;24.59;100.00
24610;BME280;12758;47.890;11.694;2023-08-20T01:39:20;94299.09;;;24.58;100.00
24610;BME280;12758;47.890;11.694;2023-08-20T01:41:46;94304.63;;;24.58;100.00
24610;BME280;12758;47.890;11.694;2023-08-20T01:44:12;94304.69;;;24.51;100.00
24610;BME280;12758;47.890;11.694;2023-08-20T01:46:40;94304.28;;;24.49;100.00
24610;BME280;12758;47.890;11.694;2023-08-20T01:49:06;94309.50;;;24.47;100.00
24610;BME280;12758;47.890;11.694;2023-08-20T01:51:32;94307.47;;;24.51;100.00
24610;BME280;12758;47.890;11.694;2023-08-20T01:53:57;94301.53;;;24.49;100.00
24610;BME280;12758;47.890;11.694;2023-08-20T01:56:23;94302.34;;;24.46;100.00
24610;BME280;12758;47.890;11.694;2023-08-20T01:58:49;94300.00;;;24.41;100.00
24610;BME280;12758;47.890;11.694;2023-08-20T02:01:16;94305.56;;;24.41;100.00
24610;BME280;12758;47.890;11.694;2023-08-20T02:03:42;94307.91;;;24.39;100.00
24610;BME280;12758;47.890;11.694;2023-08-20T02:06:08;94302.00;;;24.37;100.00
24610;BME280;12758;47.890;11.694;2023-08-20T02:08:34;94305.56;;;24.34;100.00
24610;BME280;12758;47.890;11.694;2023-08-20T02:11:01;94302.41;;;24.32;100.00
24610;BME280;12758;47.890;11.694;2023-08-20T02:13:27;94311.94;;;24.31;100.00
24610;BME280;12758;47.890;11.694;2023-08-20T02:15:57;94302.44;;;24.28;100.00
24610;BME280;12758;47.890;11.694;2023-08-20T02:18:23;94302.41;;;24.32;100.00
24610;BME280;12758;47.890;11.694;2023-08-20T02:20:50;94307.16;;;24.35;100.00
24610;BME280;12758;47.890;11.694;2023-08-20T02:23:16;94304.00;;;24.29;100.00
24610;BME280;12758;47.890;11.694;2023-08-20T02:25:43;94301.63;;;24.28;100.00
24610;BME280;12758;47.890;11.694;2023-08-20T02:28:09;94302.44;;;24.25;100.00
24610;BME280;12758;47.890;11.694;2023-08-20T02:30:40;94305.22;;;24.25;100.00
24610;BME280;12758;47.890;11.694;2023-08-20T02:33:06;94306.41;;;24.24;100.00
24610;BME280;12758;47.890;11.694;2023-08-20T02:35:32;94304.41;;;24.28;100.00
24610;BME280;12758;47.890;11.694;2023-08-20T02:37:58;94310.34;;;24.30;100.00
24610;BME280;12758;47.890;11.694;2023-08-20T02:40:24;94306.78;;;24.26;100.00
24610;BME280;12758;47.890;11.694;2023-08-20T02:42:50;94310.78;;;24.21;100.00
24610;BME280;12758;47.890;11.694;2023-08-20T02:45:16;94310.41;;;24.15;100.00
24610;BME280;12758;47.890;11.694;2023-08-20T02:47:42;94313.19;;;24.15;100.00
24610;BME280;12758;47.890;11.694;2023-08-20T02:50:09;94309.66;;;24.11;100.00
24610;BME280;12758;47.890;11.694;2023-08-20T02:52:35;94307.69;;;24.08;100.00
24610;BME280;12758;47.890;11.694;2023-08-20T02:55:01;94300.94;;;24.09;100.00
24610;BME280;12758;47.890;11.694;2023-08-20T02:57:29;94308.47;;;24.09;100.00
24610;BME280;12758;47.890;11.694;2023-08-20T02:59:56;94308.88;;;24.07;100.00
24610;BME280;12758;47.890;11.694;2023-08-20T03:02:22;94311.28;;;24.05;100.00
24610;BME280;12758;47.890;11.694;2023-08-20T03:04:48;94321.56;;;24.05;100.00
24610;BME280;12758;47.890;11.694;2023-08-20T03:07:14;94321.56;;;24.01;100.00
24610;BME280;12758;47.890;11.694;2023-08-20T03:09:41;94316.03;;;24.01;100.00
24610;BME280;12758;47.890;11.694;2023-08-20T03:12:08;94318.44;;;23.96;100.00
24610;BME280;12758;47.890;11.694;2023-08-20T03:14:34;94316.47;;;23.92;100.00
24610;BME280;12758;47.890;11.694;2023-08-20T03:17:00;94308.94;;;23.93;100.00
24610;BME280;12758;47.890;11.694;2023-08-20T03:19:26;94310.13;;;23.92;100.00
24610;BME280;12758;47.890;11.694;2023-08-20T03:21:52;94319.63;;;23.91;100.00
24610;BME280;12758;47.890;11.694;2023-08-20T03:24:18;94315.28;;;23.90;100.00
24610;BME280;12758;47.890;11.694;2023-08-20T03:26:44;94312.94;;;23.88;100.00
24610;BME280;12758;47.890;11.694;2023-08-20T03:29:12;94308.97;;;23.86;100.00
24610;BME280;12758;47.890;11.694;2023-08-20T03:31:38;94303.03;;;23.84;100.00
24610;BME280;12758;47.890;11.694;2023-08-20T03:34:04;94305.00;;;23.83;100.00
24610;BME280;12758;47.890;11.694;2023-08-20T03:36:30;94305.81;;;23.84;100.00
24610;BME280;12758;47.890;11.694;2023-08-20T03:38:57;94310.56;;;23.83;100.00
24610;BME280;12758;47.890;11.694;2023-08-20T03:41:23;94314.91;;;23.81;100.00
24610;BME280;12758;47.890;11.694;2023-08-20T03:43:49;94318.50;;;23.78;100.00
24610;BME280;12758;47.890;11.694;2023-08-20T03:46:16;94319.28;;;23.75;100.00
24610;BME280;12758;47.890;11.694;2023-08-20T03:48:42;94320.88;;;23.72;100.00
24610;BME280;12758;47.890;11.694;2023-08-20T03:51:08;94315.34;;;23.68;100.00
24610;BME280;12758;47.890;11.694;2023-08-20T03:53:34;94312.19;;;23.66;100.00
24610;BME280;12758;47.890;11.694;2023-08-20T03:56:00;94311.38;;;23.62;100.00
24610;BME280;12758;47.890;11.694;2023-08-20T03:58:26;94321.69;;;23.62;100.00
24610;BME280;12758;47.890;11.694;2023-08-20T04:00:52;94320.50;;;23.59;100.00
24610;BME280;12758;47.890;11.694;2023-08-20T04:03:19;94328.81;;;23.59;100.00
24610;BME280;12758;47.890;11.694;2023-08-20T04:05:45;94327.22;;;23.58;100.00
24610;BME280;12758;47.890;11.694;2023-08-20T04:08:11;94333.56;;;23.59;100.00
24610;BME280;12758;47.890;11.694;2023-08-20T04:10:42;94331.22;;;23.57;100.00
24610;BME280;12758;47.890;11.694;2023-08-20T04:13:08;94324.88;;;23.57;100.00
24610;BME280;12758;47.890;11.694;2023-08-20T04:15:34;94333.56;;;23.55;100.00
24610;BME280;12758;47.890;11.694;2023-08-20T04:18:00;94333.56;;;23.55;100.00
24610;BME280;12758;47.890;11.694;2023-08-20T04:20:27;94333.56;;;23.55;100.00
24610;BME280;12758;47.890;11.694;2023-08-20T04:22:53;94337.53;;;23.54;100.00
24610;BME280;12758;47.890;11.694;2023-08-20T04:25:19;94339.13;;;23.52;100.00
24610;BME280;12758;47.890;11.694;2023-08-20T04:27:45;94343.09;;;23.54;100.00
24610;BME280;12758;47.890;11.694;2023-08-20T04:30:11;94341.53;;;23.53;100.00
24610;BME280;12758;47.890;11.694;2023-08-20T04:32:37;94343.88;;;23.51;100.00
24610;BME280;12758;47.890;11.694;2023-08-20T04:35:04;94339.91;;;23.52;100.00
24610;BME280;12758;47.890;11.694;2023-08-20T04:37:31;94338.34;;;23.51;100.00
24610;BME280;12758;47.890;11.694;2023-08-20T04:39:57;94338.72;;;23.49;100.00
24610;BME280;12758;47.890;11.694;2023-08-20T04:42:23;94343.09;;;23.51;100.00
24610;BME280;12758;47.890;11.694;2023-08-20T04:44:49;94343.09;;;23.47;100.00
24610;BME280;12758;47.890;11.694;2023-08-20T04:47:15;94334.41;;;23.45;100.00
24610;BME280;12758;47.890;11.694;2023-08-20T04:49:41;94348.66;;;23.47;100.00
24610;BME280;12758;47.890;11.694;2023-08-20T04:52:07;94349.44;;;23.47;100.00
24610;BME280;12758;47.890;11.694;2023-08-20T04:54:34;94347.84;;;23.46;100.00
24610;BME280;12758;47.890;11.694;2023-08-20T04:57:00;94351.03;;;23.45;100.00
24610;BME280;12758;47.890;11.694;2023-08-20T04:59:26;94351.03;;;23.45;100.00
24610;BME280;12758;47.890;11.694;2023-08-20T05:01:52;94353.00;;;23.44;100.00
24610;BME280;12758;47.890;11.694;2023-08-20T05:04:18;94349.81;;;23.46;100.00
24610;BME280;12758;47.890;11.694;2023-08-20T05:06:44;94356.56;;;23.45;100.00
24610;BME280;12758;47.890;11.694;2023-08-20T05:09:10;94353.00;;;23.41;100.00
24610;BME280;12758;47.890;11.694;2023-08-20T05:11:36;94355.78;;;23.41;100.00
24610;BME280;12758;47.890;11.694;2023-08-20T05:14:03;94357.34;;;23.42;100.00
24610;BME280;12758;47.890;11.694;2023-08-20T05:16:29;94358.56;;;23.41;100.00
24610;BME280;12758;47.890;11.694;2023-08-20T05:18:55;94359.72;;;23.40;100.00
24610;BME280;12758;47.890;11.694;2023-08-20T05:21:21;94370.41;;;23.41;100.00
24610;BME280;12758;47.890;11.694;2023-08-20T05:23:47;94364.09;;;23.37;100.00
24610;BME280;12758;47.890;11.694;2023-08-20T05:26:13;94371.59;;;23.37;100.00
24610;BME280;12758;47.890;11.694;2023-08-20T05:28:39;94362.13;;;23.38;100.00
24610;BME280;12758;47.890;11.694;2023-08-20T05:31:05;94366.06;;;23.37;100.00
24610;BME280;12758;47.890;11.694;2023-08-20T05:33:31;94362.13;;;23.31;100.00
24610;BME280;12758;47.890;11.694;2023-08-20T05:35:58;94366.84;;;23.34;100.00
24610;BME280;12758;47.890;11.694;2023-08-20T05:38:25;94364.47;;;23.36;100.00
24610;BME280;12758;47.890;11.694;2023-08-20T05:40:51;94374.38;;;23.30;100.00
24610;BME280;12758;47.890;11.694;2023-08-20T05:43:17;94375.19;;;23.27;100.00
24610;BME280;12758;47.890;11.694;2023-08-20T05:45:43;94373.59;;;23.25;100.00
24610;BME280;12758;47.890;11.694;2023-08-20T05:48:09;94367.66;;;23.27;100.00
24610;BME280;12758;47.890;11.694;2023-08-20T05:50:35;94377.94;;;23.34;100.00
24610;BME280;12758;47.890;11.694;2023-08-20T05:53:01;94363.69;;;23.39;100.00
24610;BME280;12758;47.890;11.694;2023-08-20T05:55:27;94365.25;;;23.43;100.00
24610;BME280;12758;47.890;11.694;2023-08-20T05:57:53;94372.00;;;23.39;100.00
24610;BME280;12758;47.890;11.694;2023-08-20T06:00:19;94362.09;;;23.45;100.00
24610;BME280;12758;47.890;11.694;2023-08-20T06:02:46;94370.41;;;23.45;100.00
24610;BME280;12758;47.890;11.694;2023-08-20T06:05:12;94364.47;;;23.36;100.00
24610;BME280;12758;47.890;11.694;2023-08-20T06:07:38;94369.22;;;23.39;100.00
24610;BME280;12758;47.890;11.694;2023-08-20T06:10:06;94365.28;;;23.11;100.00
24610;BME280;12758;47.890;11.694;2023-08-20T06:12:32;94360.16;;;23.13;100.00
24610;BME280;12758;47.890;11.694;2023-08-20T06:14:58;94366.88;;;23.05;100.00
24610;BME280;12758;47.890;11.694;2023-08-20T06:17:24;94366.84;;;22.91;100.00
24610;BME280;12758;47.890;11.694;2023-08-20T06:19:50;94356.56;;;22.81;100.00
24610;BME280;12758;47.890;11.694;2023-08-20T06:22:16;94362.00;;;22.38;100.00
24610;BME280;12758;47.890;11.694;2023-08-20T06:24:42;94371.34;;;22.12;100.00
24610;BME280;12758;47.890;11.694;2023-08-20T06:27:08;94369.47;;;22.26;100.00
24610;BME280;12758;47.890;11.694;2023-08-20T06:29:34;94366.72;;;22.30;100.00
24610;BME280;12758;47.890;11.694;2023-08-20T06:32:01;94367.56;;;22.45;100.00
24610;BME280;12758;47.890;11.694;2023-08-20T06:34:27;94376.63;;;22.35;100.00
24610;BME280;12758;47.890;11.694;2023-08-20T06:36:54;94367.50;;;22.23;100.00
24610;BME280;12758;47.890;11.694;2023-08-20T06:39:20;94370.63;;;22.18;100.00
24610;BME280;12758;47.890;11.694;2023-08-20T06:41:46;94382.09;;;22.27;100.00
24610;BME280;12758;47.890;11.694;2023-08-20T06:44:13;94378.97;;;22.25;100.00
24610;BME280;12758;47.890;11.694;2023-08-20T06:46:39;94373.03;;;22.23;100.00
24610;BME280;12758;47.890;11.694;2023-08-20T06:49:06;94382.09;;;22.17;100.00
24610;BME280;12758;47.890;11.694;2023-08-20T06:51:32;94374.22;;;22.26;100.00
24610;BME280;12758;47.890;11.694;2023-08-20T06:53:59;94365.16;;;22.40;100.00
24610;BME280;12758;47.890;11.694;2023-08-20T06:56:25;94367.53;;;22.38;100.00
24610;BME280;12758;47.890;11.694;2023-08-20T06:58:51;94380.97;;;22.36;100.00
24610;BME280;12758;47.890;11.694;2023-08-20T07:01:17;94383.72;;;22.36;100.00
24610;BME280;12758;47.890;11.694;2023-08-20T07:03:44;94386.50;;;22.36;100.00
24610;BME280;12758;47.890;11.694;2023-08-20T07:06:10;94389.69;;;22.45;100.00
24610;BME280;12758;47.890;11.694;2023-08-20T07:08:37;94387.34;;;22.54;100.00
24610;BME280;12758;47.890;11.694;2023-08-20T07:11:05;94392.09;;;22.57;100.00
24610;BME280;12758;47.890;11.694;2023-08-20T07:13:31;94396.03;;;22.56;100.00
24610;BME280;12758;47.890;11.694;2023-08-20T07:15:57;94393.69;;;22.58;100.00
24610;BME280;12758;47.890;11.694;2023-08-20T07:18:23;94389.75;;;22.77;100.00
24610;BME280;12758;47.890;11.694;2023-08-20T07:20:50;94388.22;;;22.94;100.00
24610;BME280;12758;47.890;11.694;2023-08-20T07:23:16;94390.63;;;22.99;100.00
24610;BME280;12758;47.890;11.694;2023-08-20T07:25:42;94381.13;;;23.04;100.00
24610;BME280;12758;47.890;11.694;2023-08-20T07:28:10;94394.97;;;23.29;100.00
24610;BME280;12758;47.890;11.694;2023-08-20T07:30:36;94402.50;;;23.32;100.00
24610;BME280;12758;47.890;11.694;2023-08-20T07:33:03;94402.47;;;23.46;100.00
24610;BME280;12758;47.890;11.694;2023-08-20T07:35:29;94398.09;;;23.66;100.00
24610;BME280;12758;47.890;11.694;2023-08-20T07:37:55;94401.66;;;23.81;100.00
24610;BME280;12758;47.890;11.694;2023-08-20T07:40:21;94398.13;;;23.74;100.00
24610;BME280;12758;47.890;11.694;2023-08-20T07:42:47;94402.47;;;23.75;100.00
24610;BME280;12758;47.890;11.694;2023-08-20T07:45:13;94412.72;;;23.85;100.00
24610;BME280;12758;47.890;11.694;2023-08-20T07:47:40;94402.47;;;23.75;100.00
24610;BME280;12758;47.890;11.694;2023-08-20T07:50:06;94408.75;;;24.00;100.00
24610;BME280;12758;47.890;11.694;2023-08-20T07:52:32;94401.25;;;23.93;100.00
24610;BME280;12758;47.890;11.694;2023-08-20T07:54:58;94402.00;;;24.08;100.00
24610;BME280;12758;47.890;11.694;2023-08-20T07:57:25;94407.13;;;24.10;100.00
24610;BME280;12758;47.890;11.694;2023-08-20T07:59:51;94406.38;;;24.02;100.00
24610;BME280;12758;47.890;11.694;2023-08-20T08:02:18;94404.03;;;23.90;100.00
24610;BME280;12758;47.890;11.694;2023-08-20T08:04:44;94407.94;;;24.03;100.00
24610;BME280;12758;47.890;11.694;2023-08-20T08:07:10;94404.00;;;23.97;100.00
24610;BME280;12758;47.890;11.694;2023-08-20T08:09:36;94401.56;;;24.21;100.00
24610;BME280;12758;47.890;11.694;2023-08-20T08:12:04;94409.44;;;24.29;100.00
24610;BME280;12758;47.890;11.694;2023-08-20T08:14:30;94416.56;;;24.27;100.00
24610;BME280;12758;47.890;11.694;2023-08-20T08:16:56;94410.94;;;24.55;100.00
24610;BME280;12758;47.890;11.694;2023-08-20T08:19:23;94418.91;;;24.50;100.00
24610;BME280;12758;47.890;11.694;2023-08-20T08:21:49;94429.91;;;24.68;100.00
24610;BME280;12758;47.890;11.694;2023-08-20T08:24:15;94422.88;;;24.45;100.00
24610;BME280;12758;47.890;11.694;2023-08-20T08:26:41;94427.88;;;24.79;100.00
24610;BME280;12758;47.890;11.694;2023-08-20T08:29:07;94438.50;;;24.95;100.00
24610;BME280;12758;47.890;11.694;2023-08-20T08:31:34;94429.97;;;24.60;100.00
24610;BME280;12758;47.890;11.694;2023-08-20T08:34:01;94428.66;;;24.83;100.00
24610;BME280;12758;47.890;11.694;2023-08-20T08:36:29;94425.19;;;24.61;100.00
24610;BME280;12758;47.890;11.694;2023-08-20T08:38:55;94429.09;;;24.71;100.00
24610;BME280;12758;47.890;11.694;2023-08-20T08:41:22;94434.28;;;24.65;100.00
24610;BME280;12758;47.890;11.694;2023-08-20T08:43:48;94436.31;;;24.57;100.00
24610;BME280;12758;47.890;11.694;2023-08-20T08:46:15;94430.69;;;24.75;100.00
24610;BME280;12758;47.890;11.694;2023-08-20T08:48:42;94429.94;;;24.64;100.00
24610;BME280;12758;47.890;11.694;2023-08-20T08:51:08;94438.19;;;24.75;100.00
24610;BME280;12758;47.890;11.694;2023-08-20T08:53:35;94434.66;;;24.71;100.00
24610;BME280;12758;47.890;11.694;2023-08-20T08:56:01;94442.53;;;24.83;100.00
24610;BME280;12758;47.890;11.694;2023-08-20T08:58:28;94436.63;;;24.74;100.00
24610;BME280;12758;47.890;11.694;2023-08-20T09:00:55;94448.81;;;24.91;100.00
24610;BME280;12758;47.890;11.694;2023-08-20T09:03:21;94448.00;;;24.97;100.00
24610;BME280;12758;47.890;11.694;2023-08-20T09:05:47;94443.25;;;24.94;100.00
24610;BME280;12758;47.890;11.694;2023-08-20T09:08:20;94446.81;;;24.98;100.00
24610;BME280;12758;47.890;11.694;2023-08-20T09:10:49;94446.78;;;25.02;100.00
24610;BME280;12758;47.890;11.694;2023-08-20T09:13:15;94451.16;;;24.99;100.00
24610;BME280;12758;47.890;11.694;2023-08-20T09:15:41;94450.78;;;24.97;100.00
24610;BME280;12758;47.890;11.694;2023-08-20T09:18:09;94446.41;;;24.96;100.00
24610;BME280;12758;47.890;11.694;2023-08-20T09:20:35;94449.19;;;24.96;100.00
24610;BME280;12758;47.890;11.694;2023-08-20T09:23:02;94446.81;;;24.98;100.00
24610;BME280;12758;47.890;11.694;2023-08-20T09:25:31;94450.31;;;25.09;100.00
24610;BME280;12758;47.890;11.694;2023-08-20T09:27:57;94449.53;;;25.13;100.00
24610;BME280;12758;47.890;11.694;2023-08-20T09:30:27;94444.75;;;25.13;100.00
24610;BME280;12758;47.890;11.694;2023-08-20T09:33:04;94451.44;;;25.23;100.00
24610;BME280;12758;47.890;11.694;2023-08-20T09:35:30;94443.91;;;25.20;100.00
24610;BME280;12758;47.890;11.694;2023-08-20T09:37:58;94453.41;;;25.26;100.00
24610;BME280;12758;47.890;11.694;2023-08-20T09:40:24;94452.59;;;25.29;100.00
24610;BME280;12758;47.890;11.694;2023-08-20T09:42:51;94448.66;;;25.23;100.00
24610;BME280;12758;47.890;11.694;2023-08-20T09:45:19;94453.38;;;25.33;100.00
24610;BME280;12758;47.890;11.694;2023-08-20T09:47:45;94449.78;;;25.36;100.00
24610;BME280;12758;47.890;11.694;2023-08-20T09:50:13;94443.00;;;25.37;100.00
24610;BME280;12758;47.890;11.694;2023-08-20T09:52:47;94443.75;;;25.41;100.00
24610;BME280;12758;47.890;11.694;2023-08-20T09:55:16;94450.09;;;25.42;100.00
24610;BME280;12758;47.890;11.694;2023-08-20T09:57:42;94450.88;;;25.46;100.00
24610;BME280;12758;47.890;11.694;2023-08-20T10:00:10;94447.72;;;25.44;100.00
24610;BME280;12758;47.890;11.694;2023-08-20T10:02:37;94438.59;;;25.43;100.00
24610;BME280;12758;47.890;11.694;2023-08-20T10:05:05;94449.25;;;25.48;100.00
24610;BME280;12758;47.890;11.694;2023-08-20T10:07:31;94445.34;;;25.42;100.00
24610;BME280;12758;47.890;11.694;2023-08-20T10:09:58;94435.72;;;25.54;100.00
24610;BME280;12758;47.890;11.694;2023-08-20T10:12:25;94445.59;;;25.62;98.30
24610;BME280;12758;47.890;11.694;2023-08-20T10:14:52;94444.81;;;25.58;100.00
24610;BME280;12758;47.890;11.694;2023-08-20T10:17:18;94444.03;;;25.58;100.00
24610;BME280;12758;47.890;11.694;2023-08-20T10:19:44;94444.38;;;25.63;100.00
24610;BME280;12758;47.890;11.694;2023-08-20T10:22:12;94445.59;;;25.62;98.78
24610;BME280;12758;47.890;11.694;2023-08-20T10:24:44;94446.75;;;25.65;99.51
24610;BME280;12758;47.890;11.694;2023-08-20T10:27:12;94447.53;;;25.69;97.35
24610;BME280;12758;47.890;11.694;2023-08-20T10:29:39;94450.72;;;25.64;98.83
24610;BME280;12758;47.890;11.694;2023-08-20T10:32:08;94449.91;;;25.67;98.68
24610;BME280;12758;47.890;11.694;2023-08-20T10:34:36;94448.34;;;25.66;98.59
24610;BME280;12758;47.890;11.694;2023-08-20T10:37:09;94439.53;;;25.71;97.35
24610;BME280;12758;47.890;11.694;2023-08-20T10:39:35;94451.47;;;25.68;98.37
24610;BME280;12758;47.890;11.694;2023-08-20T10:42:31;94444.28;;;25.74;95.90
24610;BME280;12758;47.890;11.694;2023-08-20T10:45:01;94448.28;;;25.73;96.53
24610;BME280;12758;47.890;11.694;2023-08-20T10:47:42;94450.22;;;25.76;94.86
24610;BME280;12758;47.890;11.694;2023-08-20T10:50:08;94441.06;;;25.79;93.69
24610;BME280;12758;47.890;11.694;2023-08-20T10:52:39;94452.97;;;25.83;86.91
24610;BME280;12758;47.890;11.694;2023-08-20T10:55:06;94447.41;;;25.79;92.19
24610;BME280;12758;47.890;11.694;2023-08-20T10:57:34;94446.63;;;25.83;89.49
24610;BME280;12758;47.890;11.694;2023-08-20T11:00:00;94453.72;;;25.91;85.76
24610;BME280;12758;47.890;11.694;2023-08-20T11:02:30;94452.56;;;25.85;88.09
24610;BME280;12758;47.890;11.694;2023-08-20T11:04:56;94456.13;;;25.85;89.04
24610;BME280;12758;47.890;11.694;2023-08-20T11:07:24;94452.06;;;25.93;88.53
24610;BME280;12758;47.890;11.694;2023-08-20T11:09:51;94461.59;;;25.96;89.22
24610;BME280;12758;47.890;11.694;2023-08-20T11:12:19;94457.25;;;25.95;89.41
24610;BME280;12758;47.890;11.694;2023-08-20T11:14:46;94452.13;;;25.90;90.00
24610;BME280;12758;47.890;11.694;2023-08-20T11:17:12;94459.19;;;25.98;89.56
24610;BME280;12758;47.890;11.694;2023-08-20T11:19:38;94461.19;;;25.97;89.35
24610;BME280;12758;47.890;11.694;2023-08-20T11:22:05;94468.34;;;25.98;89.78
24610;BME280;12758;47.890;11.694;2023-08-20T11:24:31;94456.03;;;25.96;90.50
24610;BME280;12758;47.890;11.694;2023-08-20T11:26:58;94461.94;;;26.01;89.52
24610;BME280;12758;47.890;11.694;2023-08-20T11:29:25;94460.00;;;25.98;87.93
24610;BME280;12758;47.890;11.694;2023-08-20T11:31:51;94452.84;;;25.94;89.26
24610;BME280;12758;47.890;11.694;2023-08-20T11:34:18;94452.03;;;25.97;89.18
24610;BME280;12758;47.890;11.694;2023-08-20T11:36:44;94455.25;;;25.95;89.85
24610;BME280;12758;47.890;11.694;2023-08-20T11:39:10;94452.31;;;26.10;90.94
24610;BME280;12758;47.890;11.694;2023-08-20T11:41:37;94453.06;;;26.52;84.21
24610;BME280;12758;47.890;11.694;2023-08-20T11:44:04;94453.44;;;26.16;89.60
24610;BME280;12758;47.890;11.694;2023-08-20T11:46:30;94453.13;;;26.10;90.23
24610;BME280;12758;47.890;11.694;2023-08-20T11:49:00;94451.09;;;26.14;84.41
24610;BME280;12758;47.890;11.694;2023-08-20T11:51:27;94448.19;;;26.93;91.35
24610;BME280;12758;47.890;11.694;2023-08-20T11:53:53;94437.03;;;26.93;76.07
24610;BME280;12758;47.890;11.694;2023-08-20T11:56:19;94438.78;;;26.50;84.99
24610;BME280;12758;47.890;11.694;2023-08-20T11:58:49;94434.13;;;26.39;86.66
24610;BME280;12758;47.890;11.694;2023-08-20T12:01:17;94437.44;;;26.27;88.00
24610;BME280;12758;47.890;11.694;2023-08-20T12:03:43;94434.13;;;26.39;84.36
24610;BME280;12758;47.890;11.694;2023-08-20T12:06:17;94430.25;;;26.30;86.97
24610;BME280;12758;47.890;11.694;2023-08-20T12:08:43;94430.91;;;26.41;91.53
24610;BME280;12758;47.890;11.694;2023-08-20T12:11:09;94431.81;;;26.31;87.92
24610;BME280;12758;47.890;11.694;2023-08-20T12:13:36;94423.94;;;26.22;87.45
24610;BME280;12758;47.890;11.694;2023-08-20T12:16:02;94437.41;;;26.65;92.78
24610;BME280;12758;47.890;11.694;2023-08-20T12:18:29;94427.72;;;26.42;90.92
24610;BME280;12758;47.890;11.694;2023-08-20T12:20:55;94422.03;;;27.14;85.15
24610;BME280;12758;47.890;11.694;2023-08-20T12:23:21;94420.69;;;27.50;85.85
24610;BME280;12758;47.890;11.694;2023-08-20T12:25:50;94420.50;;;27.60;89.55
24610;BME280;12758;47.890;11.694;2023-08-20T12:28:16;94415.09;;;26.95;85.34
24610;BME280;12758;47.890;11.694;2023-08-20T12:30:43;94423.84;;;26.67;86.53
24610;BME280;12758;47.890;11.694;2023-08-20T12:33:09;94419.63;;;27.13;88.22
24610;BME280;12758;47.890;11.694;2023-08-20T12:35:37;94414.09;;;26.82;85.00
24610;BME280;12758;47.890;11.694;2023-08-20T12:38:03;94411.75;;;26.77;88.46
24610;BME280;12758;47.890;11.694;2023-08-20T12:40:30;94417.63;;;26.56;91.55